Latest Weather Observations for St Kilda Harbour RMYS

IDV60801

Issued at 5:02 am EDT Saturday 13 February 2016 (issued every 30 minutes, with the page automatically refreshed every 10 minutes)

About weather observations | Map of weather stations | Latest weather observations for VIC | Other Formats
Station Details ID: 086220 Name: ST KILDA HARBOUR - RMYS Lat: -37.86 Lon: 144.96 Height: 6.4 m
Data from the previous 72 hours. | See also: Recent months for locations in Victoria
Date/Time
EDT
Temp
°C
App
Temp
°C
Dew
Point
Rel
Hum
%
Delta-T
°C
Wind Press
QNH
hPa
Press
MSL
hPa
Rain
since 9 am
mm
Dir
 
Spd
km/h
Gust
km/h
Spd
kts
Gust
kts
13/05:00am - - - - - NNE 9 13 5 7 - - -
13/04:30am - - - - - NNE 11 15 6 8 - - -
13/04:00am - - - - - NNE 9 15 5 8 - - -
13/03:30am - - - - - NNE 9 17 5 9 - - -
13/03:00am - - - - - NE 6 9 3 5 - - -
13/02:30am - - - - - NNE 6 9 3 5 - - -
13/02:00am - - - - - N 6 9 3 5 - - -
13/01:30am - - - - - NW 9 13 5 7 - - -
13/01:00am - - - - - NW 11 13 6 7 - - -
13/12:30am - - - - - N 6 9 3 5 - - -
13/12:00am - - - - - ENE 2 4 1 2 - - -
 
Date/Time
EDT
Temp
°C
App
Temp
°C
Dew
Point
Rel
Hum
%
Delta-T
°C
Wind Press
QNH
hPa
Press
MSL
hPa
Rain
since 9 am
mm
Dir
 
Spd
km/h
Gust
km/h
Spd
kts
Gust
kts
12/11:30pm - - - - - NW 2 4 1 2 - - -
12/11:00pm - - - - - SE 4 6 2 3 - - -
12/10:30pm - - - - - ESE 9 11 5 6 - - -
12/10:00pm - - - - - SE 9 13 5 7 - - -
12/09:30pm - - - - - SE 9 13 5 7 - - -
12/09:00pm - - - - - ESE 9 11 5 6 - - -
12/08:30pm - - - - - SSE 19 26 10 14 - - -
12/08:00pm - - - - - S 28 32 15 17 - - -
12/07:30pm - - - - - S 32 37 17 20 - - -
12/07:00pm - - - - - SSW 28 33 15 18 - - -
12/06:30pm - - - - - SSW 26 32 14 17 - - -
12/06:00pm - - - - - SSW 28 32 15 17 - - -
12/05:30pm - - - - - SSW 26 28 14 15 - - -
12/05:00pm - - - - - S 22 26 12 14 - - -
12/04:30pm - - - - - S 22 26 12 14 - - -
12/04:00pm - - - - - SSW 22 26 12 14 - - -
12/03:30pm - - - - - SSW 22 28 12 15 - - -
12/03:00pm - - - - - SSW 24 28 13 15 - - -
12/02:30pm - - - - - SSW 24 28 13 15 - - -
12/02:00pm - - - - - SW 20 24 11 13 - - -
12/01:30pm - - - - - SW 17 20 9 11 - - -
12/01:00pm - - - - - SW 17 20 9 11 - - -
12/12:30pm - - - - - SSW 17 20 9 11 - - -
12/12:00pm - - - - - SSW 17 22 9 12 - - -
12/11:30am - - - - - SSW 17 20 9 11 - - -
12/11:00am - - - - - SSW 15 19 8 10 - - -
12/10:30am - - - - - SSW 9 13 5 7 - - -
12/10:00am - - - - - ESE 7 13 4 7 - - -
12/09:30am - - - - - ESE 6 13 3 7 - - -
12/09:00am - - - - - ESE 4 7 2 4 - - -
12/08:30am - - - - - ESE 6 7 3 4 - - -
12/08:00am - - - - - E 6 9 3 5 - - -
12/07:30am - - - - - ESE 4 7 2 4 - - -
12/07:00am - - - - - ESE 7 11 4 6 - - -
12/06:30am - - - - - ESE 9 13 5 7 - - -
12/06:00am - - - - - SE 11 15 6 8 - - -
12/05:30am - - - - - ESE 9 13 5 7 - - -
12/05:00am - - - - - SE 13 20 7 11 - - -
12/04:30am - - - - - SSE 20 30 11 16 - - -
12/04:00am - - - - - SSE 15 24 8 13 - - -
12/03:30am - - - - - SE 13 19 7 10 - - -
12/03:00am - - - - - SSE 19 26 10 14 - - -
12/02:30am - - - - - SE 15 19 8 10 - - -
12/02:00am - - - - - SE 11 17 6 9 - - -
12/01:30am - - - - - SE 11 17 6 9 - - -
12/01:00am - - - - - SSE 22 28 12 15 - - -
12/12:30am - - - - - SE 15 22 8 12 - - -
12/12:00am - - - - - SE 15 20 8 11 - - -
 
Date/Time
EDT
Temp
°C
App
Temp
°C
Dew
Point
Rel
Hum
%
Delta-T
°C
Wind Press
QNH
hPa
Press
MSL
hPa
Rain
since 9 am
mm
Dir
 
Spd
km/h
Gust
km/h
Spd
kts
Gust
kts
11/11:30pm - - - - - SE 17 24 9 13 - - -
11/11:00pm - - - - - SE 17 24 9 13 - - -
11/10:30pm - - - - - SE 19 28 10 15 - - -
11/10:00pm - - - - - SSE 22 30 12 16 - - -
11/09:30pm - - - - - SE 20 30 11 16 - - -
11/09:00pm - - - - - SSE 24 32 13 17 - - -
11/08:30pm - - - - - SSE 30 35 16 19 - - -
11/08:00pm - - - - - SSE 32 37 17 20 - - -
11/07:30pm - - - - - S 33 37 18 20 - - -
11/07:00pm - - - - - S 33 39 18 21 - - -
11/06:30pm - - - - - SSW 35 43 19 23 - - -
11/06:00pm - - - - - SSW 37 43 20 23 - - -
11/05:30pm - - - - - SSW 39 44 21 24 - - -
11/05:00pm - - - - - SSW 43 48 23 26 - - -
11/04:30pm - - - - - SSW 43 50 23 27 - - -
11/04:00pm - - - - - SSW 41 46 22 25 - - -
11/03:30pm - - - - - SSW 37 41 20 22 - - -
11/03:00pm - - - - - SSW 35 39 19 21 - - -
11/02:30pm - - - - - SSW 30 33 16 18 - - -
11/02:00pm - - - - - SSW 30 33 16 18 - - -
11/01:30pm - - - - - SSW 28 32 15 17 - - -
11/01:00pm - - - - - SSW 28 32 15 17 - - -
11/12:30pm - - - - - SSW 26 32 14 17 - - -
11/12:00pm - - - - - SSW 24 30 13 16 - - -
11/11:30am - - - - - SSW 24 32 13 17 - - -
11/11:00am - - - - - S 22 26 12 14 - - -
11/10:30am - - - - - S 13 19 7 10 - - -
11/10:00am - - - - - S 13 19 7 10 - - -
11/09:30am - - - - - SE 11 19 6 10 - - -
11/09:00am - - - - - ESE 15 20 8 11 - - -
11/08:30am - - - - - ESE 9 15 5 8 - - -
11/08:00am - - - - - ESE 11 15 6 8 - - -
11/07:30am - - - - - ESE 15 19 8 10 - - -
11/07:00am - - - - - ESE 13 17 7 9 - - -
11/06:30am - - - - - ESE 13 19 7 10 - - -
11/06:00am - - - - - SE 15 20 8 11 - - -
11/05:30am - - - - - SE 17 24 9 13 - - -
11/05:00am - - - - - SE 15 20 8 11 - - -
11/04:30am - - - - - SE 17 22 9 12 - - -
11/04:00am - - - - - SE 15 20 8 11 - - -
11/03:30am - - - - - SE 13 19 7 10 - - -
11/03:00am - - - - - ESE 9 15 5 8 - - -
11/02:30am - - - - - ESE 9 15 5 8 - - -
11/02:00am - - - - - SE 11 15 6 8 - - -
11/01:30am - - - - - ESE 11 15 6 8 - - -
11/01:00am - - - - - ESE 11 15 6 8 - - -
11/12:30am - - - - - SE 15 20 8 11 - - -
11/12:00am - - - - - SE 17 22 9 12 - - -
 
Date/Time
EDT
Temp
°C
App
Temp
°C
Dew
Point
Rel
Hum
%
Delta-T
°C
Wind Press
QNH
hPa
Press
MSL
hPa
Rain
since 9 am
mm
Dir
 
Spd
km/h
Gust
km/h
Spd
kts
Gust
kts
10/11:30pm - - - - - SE 15 20 8 11 - - -
10/11:00pm - - - - - SE 17 26 9 14 - - -
10/10:30pm - - - - - SE 17 24 9 13 - - -
10/10:00pm - - - - - SSE 22 28 12 15 - - -
10/09:30pm - - - - - SSE 26 30 14 16 - - -
10/09:00pm - - - - - S 28 32 15 17 - - -
10/08:30pm - - - - - SSW 35 43 19 23 - - -
10/08:00pm - - - - - SSW 30 35 16 19 - - -
10/07:30pm - - - - - SSW 26 32 14 17 - - -
10/07:00pm - - - - - S 24 28 13 15 - - -
10/06:30pm - - - - - S 24 30 13 16 - - -
10/06:00pm - - - - - S 26 28 14 15 - - -
10/05:30pm - - - - - S 26 30 14 16 - - -
10/05:00pm - - - - - S 28 30 15 16 - - -
10/04:30pm - - - - - S 24 28 13 15 - - -
10/04:00pm - - - - - S 26 30 14 16 - - -
10/03:30pm - - - - - S 22 26 12 14 - - -
10/03:00pm - - - - - SSW 22 28 12 15 - - -
10/02:30pm - - - - - SSW 22 28 12 15 - - -
10/02:00pm - - - - - SSW 20 26 11 14 - - -
10/01:30pm - - - - - SSW 17 20 9 11 - - -
10/01:00pm - - - - - SSW 19 24 10 13 - - -
10/12:30pm - - - - - S 20 26 11 14 - - -
10/12:00pm - - - - - SSW 20 26 11 14 - - -
10/11:30am - - - - - SSW 17 20 9 11 - - -
10/11:00am - - - - - S 13 17 7 9 - - -
10/10:30am - - - - - S 9 11 5 6 - - -
10/10:00am - - - - - SSE 9 17 5 9 - - -
10/09:30am - - - - - SSE 13 17 7 9 - - -
10/09:00am - - - - - E 7 13 4 7 - - -
10/08:30am - - - - - ESE 7 11 4 6 - - -
10/08:00am - - - - - ESE 7 13 4 7 - - -
10/07:30am - - - - - ESE 7 11 4 6 - - -
10/07:00am - - - - - SE 6 9 3 5 - - -
10/06:30am - - - - - ESE 9 13 5 7 - - -
10/06:00am - - - - - ENE 7 9 4 5 - - -
10/05:30am - - - - - E 7 11 4 6 - - -

Other Formats:

Comma delimited format used in spreadsheet applications
http://www.bom.gov.au/fwo/IDV60801/IDV60801.95864.axf

JavaScript Object Notation format (JSON) in row-major order
http://www.bom.gov.au/fwo/IDV60801/IDV60801.95864.json